Time;durP1;ratioP1;P1;durP2;ratioP2;P2;SDS_P1;SDS_P2;PMS_P1;PMS_P2;Temp;Humidity;BMP_temperature;BMP_pressure;BME280_temperature;BME280_humidity;BME280_pressure;Samples;Min_cycle;Max_cycle;Signal;HPM_P1;HPM_P2
2022/04/23 00:01:21;;;;;;;0.20;0.00;;;13.50;99.90;;;;;;25552137;23;20198;-73
2022/04/23 00:11:25;;;;;;;0.20;0.10;;;13.70;99.90;;;;;;25529083;23;20438;-73
2022/04/23 00:21:31;;;;;;;0.20;0.00;;;13.80;99.90;;;;;;25551657;23;20254;-71
2022/04/23 00:31:36;;;;;;;0.20;0.00;;;13.90;99.90;;;;;;25554936;23;20171;-72
2022/04/23 00:41:45;;;;;;;0.20;0.00;;;14.30;99.90;;;;;;25551826;23;20272;-72
2022/04/23 00:51:50;;;;;;;0.20;0.00;;;14.40;99.90;;;;;;25527554;23;20198;-72
2022/04/23 01:01:55;;;;;;;0.20;0.00;;;14.60;99.90;;;;;;25530069;23;20512;-72
2022/04/23 01:12:00;;;;;;;0.20;0.00;;;14.80;99.90;;;;;;25526376;23;20181;-73
2022/04/23 01:22:05;;;;;;;0.20;0.00;;;14.70;99.90;;;;;;25550526;23;20199;-74
2022/04/23 01:32:10;;;;;;;0.20;0.00;;;14.70;99.90;;;;;;25533048;23;20181;-75
2022/04/23 01:42:17;;;;;;;0.20;0.00;;;14.70;99.90;;;;;;25560522;23;20212;-75
2022/04/23 01:52:21;;;;;;;0.20;0.00;;;14.70;99.90;;;;;;25535387;23;20195;-76
2022/04/23 02:02:26;;;;;;;0.20;0.00;;;14.60;99.90;;;;;;25535431;23;20222;-76
2022/04/23 02:12:30;;;;;;;0.20;0.00;;;14.50;99.90;;;;;;25532189;23;20323;-76
2022/04/23 02:22:36;;;;;;;0.20;0.00;;;14.50;99.90;;;;;;25535193;23;20175;-76
2022/04/23 02:32:40;;;;;;;0.20;0.00;;;14.60;99.90;;;;;;25532600;23;20170;-71
2022/04/23 02:42:45;;;;;;;0.20;0.00;;;14.70;99.90;;;;;;25531330;23;20538;-71
2022/04/23 02:52:49;;;;;;;0.20;0.00;;;14.80;99.90;;;;;;25532232;23;20656;-70
2022/04/23 03:02:55;;;;;;;0.20;0.00;;;14.70;99.90;;;;;;25530560;23;20202;-71
2022/04/23 03:12:59;;;;;;;0.20;0.00;;;14.80;99.90;;;;;;25532537;23;20214;-74
2022/04/23 03:23:04;;;;;;;0.20;0.00;;;14.80;99.90;;;;;;25531489;23;20445;-75
2022/04/23 03:33:09;;;;;;;0.20;0.00;;;14.60;99.90;;;;;;25554613;23;20233;-75
2022/04/23 03:43:15;;;;;;;0.20;0.00;;;14.70;99.90;;;;;;25556697;23;20174;-75
2022/04/23 03:53:18;;;;;;;0.20;0.00;;;14.70;99.90;;;;;;25528250;23;20198;-75
2022/04/23 04:03:24;;;;;;;0.20;0.00;;;14.70;99.90;;;;;;25548414;23;20372;-72
2022/04/23 04:13:28;;;;;;;0.20;0.00;;;14.70;99.90;;;;;;25528781;23;20187;-74
2022/04/23 04:23:34;;;;;;;0.20;0.00;;;14.60;99.90;;;;;;25551835;23;20210;-74
2022/04/23 04:33:37;;;;;;;0.20;0.10;;;14.60;99.90;;;;;;25527305;23;20193;-74
2022/04/23 04:43:43;;;;;;;0.20;0.00;;;14.50;99.90;;;;;;25553981;23;20185;-75
2022/04/23 04:53:47;;;;;;;0.27;0.13;;;14.50;99.90;;;;;;25549933;23;20209;-75
2022/04/23 05:03:53;;;;;;;0.20;0.00;;;14.60;99.90;;;;;;25526113;23;20194;-74
2022/04/23 05:13:57;;;;;;;0.20;0.00;;;14.70;99.90;;;;;;25525398;23;20198;-75
2022/04/23 05:24:06;;;;;;;0.20;0.00;;;14.70;99.90;;;;;;25526381;23;20509;-75
2022/04/23 05:34:10;;;;;;;0.20;0.00;;;14.80;99.90;;;;;;25526803;23;20353;-74
2022/04/23 05:44:15;;;;;;;0.20;0.00;;;14.80;99.90;;;;;;25550601;23;20171;-75
2022/04/23 05:54:19;;;;;;;0.20;0.00;;;14.90;99.90;;;;;;25526669;23;20210;-77
2022/04/23 06:04:25;;;;;;;0.20;0.00;;;14.80;99.90;;;;;;25547694;23;20202;-75
2022/04/23 06:14:29;;;;;;;0.20;0.00;;;15.00;99.90;;;;;;25529471;23;20388;-75
2022/04/23 06:24:35;;;;;;;0.20;0.00;;;15.00;99.90;;;;;;25555179;23;20254;-78
2022/04/23 06:34:40;;;;;;;0.20;0.00;;;15.10;99.90;;;;;;25532738;23;20461;-70
2022/04/23 06:44:46;;;;;;;0.20;0.00;;;15.10;99.90;;;;;;25530793;23;20175;-72
2022/04/23 06:54:54;;;;;;;0.20;0.00;;;15.40;99.90;;;;;;25531219;23;20199;-70
2022/04/23 07:05:00;;;;;;;0.20;0.10;;;15.40;99.90;;;;;;25528962;23;20191;-74
2022/04/23 07:15:05;;;;;;;0.20;0.00;;;15.40;99.90;;;;;;25552121;23;20197;-75
2022/04/23 07:25:11;;;;;;;0.20;0.00;;;15.50;99.90;;;;;;25526677;23;20443;-74
2022/04/23 07:45:38;;;;;;;0.20;0.10;;;15.70;99.90;;;;;;25523446;23;20178;-71
2022/04/23 07:55:42;;;;;;;0.20;0.00;;;15.90;99.90;;;;;;25550845;23;20210;-71
2022/04/23 08:05:47;;;;;;;0.20;0.00;;;15.60;99.90;;;;;;25523026;23;20199;-72
2022/04/23 08:15:51;;;;;;;0.20;0.00;;;15.40;99.90;;;;;;25523102;23;20310;-76
2022/04/23 08:25:56;;;;;;;0.20;0.00;;;15.40;99.90;;;;;;25546190;23;20178;-74
2022/04/23 08:36:00;;;;;;;0.20;0.00;;;15.30;99.90;;;;;;25546194;23;20201;-73
2022/04/23 08:46:05;;;;;;;0.20;0.10;;;15.30;99.90;;;;;;25545010;23;20175;-76
2022/04/23 08:56:10;;;;;;;0.20;0.00;;;15.60;99.90;;;;;;25522982;23;20195;-74
2022/04/23 09:06:15;;;;;;;0.20;0.00;;;15.80;99.90;;;;;;25519205;23;20167;-74
2022/04/23 09:26:42;;;;;;;0.20;0.10;;;15.80;99.90;;;;;;25517192;23;20243;-75
2022/04/23 09:36:50;;;;;;;0.20;0.00;;;15.30;99.90;;;;;;25524936;23;20202;-76
2022/04/23 09:46:55;;;;;;;0.20;0.10;;;15.30;99.90;;;;;;25521382;23;20191;-78
2022/04/23 09:57:07;;;;;;;0.20;0.10;;;15.50;99.90;;;;;;25526418;23;20211;-73
2022/04/23 10:07:14;;;;;;;0.20;0.10;;;15.50;99.90;;;;;;25528469;23;20182;-70
2022/04/23 10:17:20;;;;;;;0.20;0.00;;;15.40;99.90;;;;;;25522854;23;20194;-72
2022/04/23 10:27:26;;;;;;;0.20;0.10;;;16.00;99.90;;;;;;25545562;23;20185;-72
2022/04/23 10:37:40;;;;;;;0.20;0.10;;;16.70;99.90;;;;;;25546194;23;20195;-71
2022/04/23 10:47:45;;;;;;;0.20;0.10;;;17.40;99.90;;;;;;25523715;23;20191;-71
2022/04/23 10:57:51;;;;;;;0.20;0.10;;;17.80;99.90;;;;;;25525629;23;20282;-72
2022/04/23 11:18:53;;;;;;;0.20;0.10;;;14.60;99.90;;;;;;25540868;23;20198;-68
2022/04/23 11:28:59;;;;;;;0.20;0.10;;;9.50;99.90;;;;;;25517145;23;20159;-69
2022/04/23 11:39:09;;;;;;;0.20;0.10;;;10.80;99.90;;;;;;25518667;23;20610;-69
2022/04/23 11:49:26;;;;;;;0.20;0.00;;;12.40;99.90;;;;;;25514529;23;20194;-69
2022/04/23 11:59:39;;;;;;;0.20;0.10;;;15.40;99.90;;;;;;25539922;23;20217;-79
2022/04/23 12:09:50;;;;;;;0.20;0.00;;;16.40;99.90;;;;;;25515872;23;20171;-72
2022/04/23 12:19:56;;;;;;;0.20;0.00;;;14.70;99.90;;;;;;25517590;23;20386;-80
2022/04/23 12:50:46;;;;;;;0.20;0.10;;;11.70;99.90;;;;;;25547411;23;20206;-76
2022/04/23 13:00:52;;;;;;;0.20;0.10;;;11.40;99.90;;;;;;25544346;23;20217;-72
2022/04/23 13:11:24;;;;;;;0.20;0.00;;;12.10;99.90;;;;;;25522953;23;20186;-72
2022/04/23 13:21:25;;;;;;;0.20;0.10;;;12.40;99.90;;;;;;25551181;23;20194;-71
2022/04/23 13:31:29;;;;;;;0.20;0.00;;;13.30;99.90;;;;;;25539276;23;20177;-72
2022/04/23 13:41:34;;;;;;;0.20;0.20;;;15.30;99.90;;;;;;25562693;23;20193;-74
2022/04/23 13:51:39;;;;;;;0.20;0.00;;;18.30;99.90;;;;;;25533686;23;20198;-75
2022/04/23 14:10:04;;;;;;;0.20;0.10;;;15.70;99.90;;;;;;25545342;23;20286;-73
2022/04/23 14:12:09;;;;;;;0.20;0.10;;;15.10;99.90;;;;;;25532710;23;20166;-79
2022/04/23 14:22:14;;;;;;;0.20;0.00;;;14.30;99.90;;;;;;25531264;23;20191;-76
2022/04/23 14:32:19;;;;;;;0.20;0.10;;;13.30;99.90;;;;;;25532482;23;20174;-75
2022/04/23 14:42:24;;;;;;;0.20;0.10;;;13.10;99.90;;;;;;25552712;23;20203;-75
2022/04/23 15:05:42;;;;;;;0.20;0.10;;;13.50;99.90;;;;;;25501157;23;20270;-72
2022/04/23 15:15:48;;;;;;;0.20;0.10;;;13.90;99.90;;;;;;25529727;23;20202;-71
2022/04/23 15:25:53;;;;;;;0.20;0.00;;;13.50;99.90;;;;;;25530117;23;20175;-74
2022/04/23 15:36:00;;;;;;;0.20;0.00;;;13.90;99.90;;;;;;25505001;23;20186;-81
2022/04/23 15:46:07;;;;;;;0.20;0.00;;;14.80;99.90;;;;;;25478585;23;20175;-82
2022/04/23 15:56:13;;;;;;;0.20;0.00;;;14.60;99.90;;;;;;25502154;23;20195;-79
2022/04/23 16:06:16;;;;;;;0.20;0.00;;;13.80;99.90;;;;;;25532119;23;20659;-84
2022/04/23 16:16:21;;;;;;;0.20;0.00;;;12.90;99.90;;;;;;25526878;23;20183;-69
2022/04/23 16:26:25;;;;;;;0.20;0.10;;;13.20;99.90;;;;;;25526752;23;20198;-69
2022/04/23 16:46:52;;;;;;;0.20;0.10;;;15.20;99.90;;;;;;25526108;23;20178;-68
2022/04/23 16:56:57;;;;;;;0.20;0.10;;;15.60;99.90;;;;;;25502118;23;20202;-69
2022/04/23 17:07:01;;;;;;;0.20;0.10;;;16.60;99.90;;;;;;25501354;23;20206;-70
2022/04/23 17:17:06;;;;;;;0.20;0.10;;;16.00;99.90;;;;;;25528575;23;20187;-73
2022/04/23 17:27:10;;;;;;;0.20;0.10;;;16.70;99.90;;;;;;25526130;23;20171;-71
2022/04/23 17:37:15;;;;;;;0.20;0.10;;;15.10;99.90;;;;;;25524844;23;20194;-76
2022/04/23 17:47:19;;;;;;;0.20;0.10;;;14.70;99.90;;;;;;25519772;23;20198;-71
2022/04/23 17:57:24;;;;;;;0.20;0.10;;;14.60;99.90;;;;;;25517876;23;20627;-69
2022/04/23 18:07:36;;;;;;;0.20;0.10;;;13.10;99.90;;;;;;25497537;23;20448;-70
2022/04/23 18:17:41;;;;;;;0.20;0.10;;;11.70;99.90;;;;;;25526384;23;20377;-71
2022/04/23 18:27:45;;;;;;;0.20;0.10;;;11.60;99.90;;;;;;25525748;23;20179;-71
2022/04/23 18:37:50;;;;;;;0.20;0.10;;;11.60;99.90;;;;;;25501294;23;20194;-70
2022/04/23 18:47:54;;;;;;;0.20;0.10;;;11.80;99.90;;;;;;25525332;23;20174;-75
2022/04/23 18:57:59;;;;;;;0.20;0.10;;;11.60;99.90;;;;;;25493997;23;20199;-75
2022/04/23 19:08:08;;;;;;;0.20;0.10;;;11.80;99.90;;;;;;25525849;23;20195;-70
2022/04/23 19:18:13;;;;;;;0.20;0.10;;;12.00;99.90;;;;;;25532598;23;20190;-70
2022/04/23 19:28:17;;;;;;;0.20;0.10;;;12.10;99.90;;;;;;25529984;23;20167;-70
2022/04/23 19:38:22;;;;;;;0.20;0.10;;;11.50;99.90;;;;;;25501768;23;20206;-74
2022/04/23 19:48:26;;;;;;;0.20;0.10;;;11.40;99.90;;;;;;25527197;23;20174;-73
2022/04/23 19:58:31;;;;;;;0.20;0.10;;;11.40;99.90;;;;;;25527518;23;20218;-74
2022/04/23 20:08:36;;;;;;;0.20;0.00;;;11.60;99.90;;;;;;25495948;23;20282;-72
2022/04/23 20:18:41;;;;;;;0.20;0.10;;;11.70;99.90;;;;;;25490553;23;20191;-73
2022/04/23 20:39:08;;;;;;;0.20;0.10;;;11.60;99.90;;;;;;25518221;23;20485;-72
2022/04/23 20:49:13;;;;;;;0.20;0.10;;;11.60;99.90;;;;;;25510753;23;20167;-72
2022/04/23 20:59:18;;;;;;;0.20;0.10;;;11.90;99.90;;;;;;25512688;23;20194;-74
2022/04/23 21:09:22;;;;;;;0.20;0.10;;;12.00;99.90;;;;;;25486343;23;20226;-76
2022/04/23 21:19:27;;;;;;;0.20;0.10;;;11.80;99.90;;;;;;25513689;23;20201;-77
2022/04/23 21:29:32;;;;;;;0.20;0.10;;;11.50;99.90;;;;;;25485895;23;20174;-76
2022/04/23 21:39:37;;;;;;;0.20;0.10;;;11.30;99.90;;;;;;25515684;23;20233;-79
2022/04/23 21:49:41;;;;;;;0.20;0.10;;;11.30;99.90;;;;;;25522880;23;20171;-71
2022/04/23 21:59:46;;;;;;;0.27;0.27;;;11.40;99.90;;;;;;25522761;23;20281;-71
2022/04/23 22:09:52;;;;;;;0.20;0.10;;;11.00;99.90;;;;;;25531510;23;20222;-71
2022/04/23 22:19:58;;;;;;;0.20;0.10;;;10.90;99.90;;;;;;25507699;23;20225;-71
2022/04/23 22:30:01;;;;;;;0.50;0.40;;;11.20;99.90;;;;;;25535246;23;20167;-71
2022/04/23 22:40:08;;;;;;;0.20;0.10;;;11.30;99.90;;;;;;25505254;23;20535;-71
2022/04/23 22:50:12;;;;;;;0.20;0.10;;;11.30;99.90;;;;;;25507157;23;20167;-70
2022/04/23 23:00:18;;;;;;;0.20;0.10;;;11.40;99.90;;;;;;25506598;23;20201;-71
2022/04/23 23:10:22;;;;;;;0.20;0.10;;;11.20;99.90;;;;;;25505321;23;20219;-70
2022/04/23 23:20:28;;;;;;;0.20;0.10;;;11.10;99.90;;;;;;25531133;23;20263;-71
2022/04/23 23:30:31;;;;;;;0.20;0.10;;;11.10;99.90;;;;;;25532549;23;20171;-71
2022/04/23 23:40:37;;;;;;;0.20;0.10;;;11.20;99.90;;;;;;25529570;23;20194;-71
2022/04/23 23:50:40;;;;;;;0.20;0.10;;;11.10;99.90;;;;;;25530657;23;20181;-72
